Baugh, Oklahoma
Current Conditions -  °F | °C
As of 7:15 PM on Sunday 23 Nov 2014 (Local Time) from KOWP Reporting Station
Overcast Overcast  
Wind Chill: 50°   Ceiling: 2100
Heat Index: 50°   Visibility: 10mi
Dew Point: 40°   Wind: 17mph
Humidity: 70%   Direction: 320°NW
Pressure: 29.52"   Gusts: 26mph
Location:  36.248°N, 96.4789°W
Report Text: KOWP 240115Z AUTO 32015G23KT 10SM OVC021 10/05 A2952 RMK AO2 T01000047
Loading
Personal Weather Stations






























Interactive Weather Map New forecast layout! Learn more

10-Day Weather Forecast

Advertisements
Track Severe Weather on mobile